Time,TemperatureF,DewpointF,PressureIn,WindDirection,WindDirectionDegrees,WindSpeedMPH,WindSpeedGustMPH,Humidity,HourlyPrecipIn,Conditions,Clouds,dailyrainin,SoftwareType,DateUTC
2013-07-18 00:12:00,77.0,72.0,-100.00,SW,235,2.0,5.0,85,0.00,,,-99.99,,2013-07-18 04:12:00,
2013-07-18 00:22:00,79.0,72.0,-100.00,West,280,2.0,6.0,79,0.00,,,-99.99,,2013-07-18 04:22:00,
2013-07-18 00:32:00,78.0,72.0,-100.00,West,270,2.0,6.0,83,0.00,,,-99.99,,2013-07-18 04:32:00,
2013-07-18 00:43:00,78.0,72.0,-100.00,West,280,2.0,6.0,81,0.00,,,-99.99,,2013-07-18 04:43:00,
2013-07-18 01:02:00,78.0,72.0,-100.00,NW,305,2.0,5.0,81,0.00,,,-99.99,,2013-07-18 05:02:00,
2013-07-18 02:01:00,76.0,71.0,-100.00,West,270,3.0,6.0,85,0.00,,,-99.99,,2013-07-18 06:01:00,
2013-07-18 03:32:00,74.0,71.0,-100.00,SW,225,4.0,4.0,90,0.00,,,-99.99,,2013-07-18 07:32:00,
2013-07-18 04:11:00,74.0,71.0,-100.00,West,265,4.0,5.0,89,0.00,,,-99.99,,2013-07-18 08:11:00,
2013-07-18 04:32:00,74.0,71.0,-100.00,West,270,1.0,5.0,89,0.00,,,-99.99,,2013-07-18 08:32:00,
2013-07-18 04:51:00,74.0,71.0,-100.00,West,265,1.0,4.0,90,0.00,,,-99.99,,2013-07-18 08:51:00,
2013-07-18 05:01:00,73.0,70.0,-100.00,West,265,1.0,5.0,90,0.00,,,-99.99,,2013-07-18 09:01:00,
2013-07-18 05:11:00,73.0,71.0,-100.00,West,270,2.0,7.0,91,0.00,,,-99.99,,2013-07-18 09:11:00,
2013-07-18 05:21:00,73.0,71.0,-100.00,West,270,2.0,7.0,91,0.00,,,-99.99,,2013-07-18 09:21:00,
2013-07-18 05:32:00,74.0,71.0,-100.00,West,270,1.0,4.0,89,0.00,,,-99.99,,2013-07-18 09:32:00,
2013-07-18 05:42:00,73.0,70.0,-100.00,WSW,245,1.0,4.0,91,0.00,,,-99.99,,2013-07-18 09:42:00,
2013-07-18 06:22:00,73.0,70.0,-100.00,WSW,255,1.0,3.0,90,0.00,,,-99.99,,2013-07-18 10:22:00,
2013-07-18 06:43:00,72.0,70.0,-100.00,SW,230,3.0,4.0,92,0.00,,,-99.99,,2013-07-18 10:43:00,
2013-07-18 07:01:00,72.0,70.0,-100.00,WSW,245,2.0,4.0,92,0.00,,,-99.99,,2013-07-18 11:01:00,
2013-07-18 07:11:00,72.0,69.0,-100.00,SW,220,3.0,3.0,92,0.00,,,-99.99,,2013-07-18 11:11:00,
2013-07-18 07:43:00,74.0,71.0,-100.00,WSW,250,1.0,5.0,90,0.00,,,-99.99,,2013-07-18 11:43:00,
2013-07-18 08:11:00,77.0,72.0,-100.00,WNW,300,2.0,6.0,84,0.00,,,-99.99,,2013-07-18 12:11:00,
2013-07-18 08:22:00,78.0,72.0,-100.00,West,275,3.0,6.0,81,0.00,,,-99.99,,2013-07-18 12:22:00,
2013-07-18 08:42:00,79.0,73.0,-100.00,WSW,255,3.0,6.0,82,0.00,,,-99.99,,2013-07-18 12:42:00,
2013-07-18 09:11:00,82.0,73.0,-100.00,WNW,285,4.0,9.0,74,0.00,,,-99.99,,2013-07-18 13:11:00,
2013-07-18 10:43:00,88.0,74.0,-100.00,West,260,4.0,9.0,63,0.00,,,-99.99,,2013-07-18 14:43:00,
2013-07-18 11:01:00,88.0,74.0,-100.00,WNW,300,4.0,8.0,63,0.00,,,-99.99,,2013-07-18 15:01:00,
2013-07-18 11:22:00,89.0,74.0,-100.00,WNW,285,4.0,7.0,60,0.00,,,-99.99,,2013-07-18 15:22:00,
2013-07-18 11:43:00,91.0,73.0,-100.00,WNW,290,3.0,9.0,55,0.00,,,-99.99,,2013-07-18 15:43:00,
2013-07-18 12:11:00,91.0,72.0,-100.00,NW,315,5.0,8.0,54,0.00,,,-99.99,,2013-07-18 16:11:00,
2013-07-18 12:42:00,92.0,71.0,-100.00,WNW,285,4.0,9.0,51,0.00,,,-99.99,,2013-07-18 16:42:00,
2013-07-18 12:52:00,91.0,72.0,-100.00,NW,305,6.0,9.0,54,0.00,,,-99.99,,2013-07-18 16:52:00,
2013-07-18 13:02:00,91.0,72.0,-100.00,WNW,295,6.0,9.0,54,0.00,,,-99.99,,2013-07-18 17:02:00,
2013-07-18 13:43:00,91.0,72.0,-100.00,West,275,4.0,10.0,54,0.00,,,-99.99,,2013-07-18 17:43:00,
2013-07-18 14:01:00,91.0,74.0,-100.00,SW,220,4.0,8.0,59,0.00,,,-99.99,,2013-07-18 18:01:00,
2013-07-18 14:11:00,90.0,72.0,-100.00,WSW,255,9.0,12.0,54,0.00,,,-99.99,,2013-07-18 18:11:00,
2013-07-18 14:22:00,90.0,73.0,-100.00,WSW,250,4.0,11.0,56,0.00,,,-99.99,,2013-07-18 18:22:00,
2013-07-18 14:32:00,91.0,72.0,-100.00,WNW,290,6.0,12.0,54,0.00,,,-99.99,,2013-07-18 18:32:00,
2013-07-18 14:52:00,88.0,74.0,-100.00,NW,325,4.0,9.0,64,0.00,,,-99.99,,2013-07-18 18:52:00,
2013-07-18 15:02:00,89.0,73.0,-100.00,NW,310,5.0,7.0,60,0.00,,,-99.99,,2013-07-18 19:02:00,
2013-07-18 15:22:00,91.0,73.0,-100.00,NNW,330,6.0,9.0,56,0.00,,,-99.99,,2013-07-18 19:22:00,
2013-07-18 15:32:00,89.0,73.0,-100.00,NNW,340,4.0,10.0,58,0.00,,,-99.99,,2013-07-18 19:32:00,
2013-07-18 15:43:00,90.0,73.0,-100.00,NW,320,4.0,9.0,57,0.00,,,-99.99,,2013-07-18 19:43:00,
2013-07-18 17:01:00,92.0,72.0,-100.00,WSW,240,9.0,12.0,52,0.00,,,-99.99,,2013-07-18 21:01:00,
2013-07-18 17:11:00,91.0,71.0,-100.00,WSW,255,6.0,12.0,51,0.00,,,-99.99,,2013-07-18 21:11:00,
2013-07-18 17:22:00,91.0,72.0,-100.00,SW,235,6.0,12.0,54,0.00,,,-99.99,,2013-07-18 21:22:00,
2013-07-18 17:32:00,90.0,71.0,-100.00,SW,235,6.0,10.0,54,0.00,,,-99.99,,2013-07-18 21:32:00,
2013-07-18 17:43:00,91.0,71.0,-100.00,WSW,255,10.0,14.0,51,0.00,,,-99.99,,2013-07-18 21:43:00,
2013-07-18 18:01:00,91.0,71.0,-100.00,WSW,250,9.0,15.0,52,0.00,,,-99.99,,2013-07-18 22:01:00,
2013-07-18 18:22:00,91.0,72.0,-100.00,WSW,240,6.0,15.0,54,0.00,,,-99.99,,2013-07-18 22:22:00,
2013-07-18 18:32:00,91.0,72.0,-100.00,WSW,255,7.0,16.0,53,0.00,,,-99.99,,2013-07-18 22:32:00,
2013-07-18 18:43:00,90.0,72.0,-100.00,WSW,245,7.0,14.0,55,0.00,,,-99.99,,2013-07-18 22:43:00,
2013-07-18 19:02:00,90.0,71.0,-100.00,WSW,240,9.0,12.0,53,0.00,,,-99.99,,2013-07-18 23:02:00,
2013-07-18 19:22:00,89.0,71.0,-100.00,SW,235,9.0,12.0,54,0.00,,,-99.99,,2013-07-18 23:22:00,
2013-07-18 19:32:00,89.0,70.0,-100.00,WSW,245,9.0,13.0,54,0.00,,,-99.99,,2013-07-18 23:32:00,
2013-07-18 19:52:00,88.0,71.0,-100.00,WSW,240,7.0,11.0,56,0.00,,,-99.99,,2013-07-18 23:52:00,
2013-07-18 20:01:00,88.0,71.0,-100.00,WSW,240,7.0,10.0,57,0.00,,,-99.99,,2013-07-19 00:01:00,
2013-07-18 20:11:00,87.0,72.0,-100.00,WSW,240,6.0,9.0,59,0.00,,,-99.99,,2013-07-19 00:11:00,
2013-07-18 20:22:00,87.0,72.0,-100.00,WSW,240,4.0,7.0,60,0.00,,,-99.99,,2013-07-19 00:22:00,
2013-07-18 20:32:00,86.0,73.0,-100.00,WSW,240,4.0,6.0,63,0.00,,,-99.99,,2013-07-19 00:32:00,
2013-07-18 20:43:00,85.0,72.0,-100.00,WSW,240,4.0,6.0,63,0.00,,,-99.99,,2013-07-19 00:43:00,
2013-07-18 20:52:00,85.0,72.0,-100.00,WSW,245,4.0,6.0,66,0.00,,,-99.99,,2013-07-19 00:52:00,
2013-07-18 21:01:00,84.0,72.0,-100.00,SW,235,4.0,6.0,68,0.00,,,-99.99,,2013-07-19 01:01:00,
2013-07-18 21:11:00,83.0,72.0,-100.00,WSW,240,4.0,6.0,70,0.00,,,-99.99,,2013-07-19 01:11:00,
2013-07-18 22:02:00,81.0,72.0,-100.00,SW,235,4.0,6.0,75,0.00,,,-99.99,,2013-07-19 02:02:00,
2013-07-18 22:42:00,79.0,72.0,-100.00,SW,235,6.0,7.0,80,0.00,,,-99.99,,2013-07-19 02:42:00,
2013-07-18 23:11:00,78.0,72.0,-100.00,SW,235,5.0,6.0,83,0.00,,,-99.99,,2013-07-19 03:11:00,